TimeMST,TemperatureF,Dew PointF,Humidity,Sea Level PressureIn,VisibilityMPH,Wind Direction,Wind SpeedMPH,Gust SpeedMPH,PrecipitationIn,Events,Conditions,WindDirDegrees,DateUTC
12:53 AM,10.9,8.1,88,30.22,10.0,Calm,Calm,-,N/A,,Clear,0,2013-02-19 07:53:00
1:53 AM,10.0,8.1,92,30.21,10.0,East,8.1,-,N/A,,Clear,80,2013-02-19 08:53:00
2:53 AM,10.9,8.1,88,30.19,10.0,ESE,6.9,-,N/A,,Partly Cloudy,120,2013-02-19 09:53:00
3:53 AM,8.1,6.1,92,30.19,10.0,East,9.2,-,N/A,,Clear,90,2013-02-19 10:53:00
4:53 AM,5.0,1.9,87,30.21,10.0,East,8.1,-,N/A,,Clear,90,2013-02-19 11:53:00
5:53 AM,6.1,3.0,87,30.21,10.0,East,10.4,-,N/A,,Clear,80,2013-02-19 12:53:00
6:53 AM,7.0,3.9,87,30.20,10.0,East,10.4,-,N/A,,Clear,90,2013-02-19 13:53:00
7:53 AM,14.0,12.0,92,30.20,10.0,ESE,10.4,-,N/A,,Clear,110,2013-02-19 14:53:00
8:53 AM,19.0,16.0,88,30.19,10.0,SE,10.4,-,N/A,,Clear,130,2013-02-19 15:53:00
9:53 AM,25.0,19.9,81,30.15,10.0,ESE,15.0,-,N/A,,Clear,120,2013-02-19 16:53:00
11:53 AM,35.1,23.0,61,30.07,10.0,SE,18.4,25.3,N/A,,Clear,130,2013-02-19 18:53:00
12:53 PM,41.0,21.9,47,30.02,10.0,SE,18.4,26.5,N/A,,Clear,130,2013-02-19 19:53:00
1:53 PM,42.1,19.0,40,30.00,10.0,SE,24.2,32.2,N/A,,Clear,140,2013-02-19 20:53:00
2:53 PM,39.0,18.0,43,29.99,10.0,SE,18.4,28.8,N/A,,Clear,130,2013-02-19 21:53:00
3:53 PM,39.9,19.0,43,29.98,10.0,SE,21.9,29.9,N/A,,Clear,130,2013-02-19 22:53:00
5:53 PM,36.0,19.0,50,30.00,10.0,ESE,13.8,-,N/A,,Clear,120,2013-02-20 00:53:00
6:53 PM,33.1,17.1,52,30.01,10.0,ESE,16.1,26.5,N/A,,Clear,120,2013-02-20 01:53:00
7:53 PM,30.0,16.0,56,30.01,10.0,ESE,16.1,21.9,N/A,,Clear,120,2013-02-20 02:53:00
8:53 PM,27.0,16.0,63,30.00,10.0,SE,15.0,23.0,N/A,,Clear,130,2013-02-20 03:53:00
9:53 PM,25.0,16.0,69,30.00,10.0,ESE,12.7,-,N/A,,Clear,120,2013-02-20 04:53:00
10:53 PM,23.0,15.1,72,29.99,10.0,SE,12.7,-,N/A,,Clear,130,2013-02-20 05:53:00
11:53 PM,21.9,14.0,72,29.96,10.0,ESE,16.1,-,N/A,,Clear,120,2013-02-20 06:53:00